createdAt,value
2018-01-28T00:00:27.884Z,35.1
2018-01-28T00:01:27.811Z,35.6
2018-01-28T00:02:28.267Z,36.3
2018-01-28T00:03:27.781Z,36.6
2018-01-28T00:04:28.158Z,36.9
2018-01-28T00:05:27.170Z,37.2
2018-01-28T00:06:27.293Z,37.4
2018-01-28T00:07:27.295Z,37.2
2018-01-28T00:08:27.274Z,37
2018-01-28T00:09:27.010Z,32.9
2018-01-28T00:10:27.060Z,15.5
2018-01-28T00:11:26.736Z,4.3
2018-01-28T00:12:26.904Z,1.6
2018-01-28T00:13:26.892Z,7.1
2018-01-28T00:14:26.536Z,8.9
2018-01-28T00:15:26.957Z,9.9
2018-01-28T00:16:26.522Z,11.1
2018-01-28T00:17:26.320Z,21
2018-01-28T00:18:26.489Z,27.1
2018-01-28T00:19:26.217Z,28.5
2018-01-28T00:20:26.268Z,29.7
2018-01-28T00:21:26.704Z,30.9
2018-01-28T00:22:25.942Z,31.8
2018-01-28T00:23:25.944Z,32.3
2018-01-28T00:24:26.046Z,32.7
2018-01-28T00:25:25.637Z,33.3
2018-01-28T00:26:25.922Z,33.8
2018-01-28T00:27:25.890Z,34.1
2018-01-28T00:28:25.822Z,34.4
2018-01-28T00:29:25.924Z,34.5
2018-01-28T00:30:25.384Z,34.7
2018-01-28T00:31:25.229Z,34.9
2018-01-28T00:32:25.384Z,35.4
2018-01-28T00:33:25.005Z,35.9
2018-01-28T00:34:24.979Z,36.3
2018-01-28T00:35:25.568Z,36.7
2018-01-28T00:36:24.792Z,37.1
2018-01-28T00:37:24.688Z,37.4
2018-01-28T00:38:24.892Z,37.3
2018-01-28T00:39:24.929Z,37.1
2018-01-28T00:40:24.837Z,36.9
2018-01-28T00:41:24.529Z,36.9
2018-01-28T00:42:24.329Z,36.9
2018-01-28T00:43:24.507Z,36.9
2018-01-28T00:44:24.664Z,37
2018-01-28T00:45:24.561Z,37
2018-01-28T00:46:24.179Z,36.9
2018-01-28T00:47:24.662Z,36.9
2018-01-28T00:48:23.926Z,36.9
2018-01-28T00:49:24.185Z,37
2018-01-28T00:50:24.465Z,37.1
2018-01-28T00:51:23.744Z,37.3
2018-01-28T00:52:23.830Z,37.5
2018-01-28T00:53:23.703Z,37.6
2018-01-28T00:54:23.393Z,37.8
2018-01-28T00:55:24.038Z,37.8
2018-01-28T00:56:23.836Z,37.8
2018-01-28T00:57:23.275Z,37.9
2018-01-28T00:58:23.710Z,38
2018-01-28T00:59:23.118Z,38.1
2018-01-28T01:00:22.992Z,38.1
2018-01-28T01:01:23.418Z,38.2
2018-01-28T01:02:23.138Z,38.3
2018-01-28T01:03:22.904Z,38.3
2018-01-28T01:04:23.048Z,38.3
2018-01-28T01:05:22.831Z,38.4
2018-01-28T01:06:22.506Z,38.4
2018-01-28T01:07:22.817Z,35.7
2018-01-28T01:08:22.264Z,30
2018-01-28T01:09:22.878Z,28.4
2018-01-28T01:10:22.282Z,28.3
2018-01-28T01:11:22.312Z,29.5
2018-01-28T01:12:22.258Z,25.8
2018-01-28T01:13:22.019Z,23.6
2018-01-28T01:14:22.046Z,23.2
2018-01-28T01:15:21.713Z,25.5
2018-01-28T01:16:22.332Z,28.6
2018-01-28T01:17:22.533Z,25
2018-01-28T01:18:21.921Z,23.2
2018-01-28T01:19:21.863Z,22.9
2018-01-28T01:20:21.676Z,26.3
2018-01-28T01:21:21.291Z,28.9
2018-01-28T01:22:21.319Z,30.1
2018-01-28T01:23:21.334Z,30.8
2018-01-28T01:24:21.068Z,30.7
2018-01-28T01:25:21.197Z,30.5
2018-01-28T01:26:20.905Z,30.4
2018-01-28T01:27:21.236Z,30.5
2018-01-28T01:28:21.359Z,30.7
2018-01-28T01:29:21.610Z,30.9
2018-01-28T01:30:20.521Z,31.2
2018-01-28T01:31:20.761Z,31.5
2018-01-28T01:32:20.429Z,31.9
2018-01-28T01:33:20.673Z,32.2
2018-01-28T01:34:20.541Z,32.5
2018-01-28T01:35:20.247Z,33.4
2018-01-28T01:36:20.232Z,34.5
2018-01-28T01:37:20.068Z,35.3
2018-01-28T01:38:20.127Z,35.8
2018-01-28T01:39:20.187Z,36.2
2018-01-28T01:40:19.767Z,36.6
2018-01-28T01:41:20.065Z,36.9
2018-01-28T01:42:19.874Z,37.3
2018-01-28T01:43:19.784Z,37.4
2018-01-28T01:44:19.842Z,36.9
2018-01-28T01:45:19.498Z,36.6
2018-01-28T01:46:19.876Z,36.4
2018-01-28T01:47:19.264Z,36.4
2018-01-28T01:48:19.729Z,36.3
2018-01-28T01:49:19.786Z,36.1
2018-01-28T01:50:19.298Z,36.1
2018-01-28T01:51:19.544Z,36.1
2018-01-28T01:52:19.361Z,36.2
2018-01-28T01:53:18.858Z,36.3
2018-01-28T01:54:19.162Z,36.5
2018-01-28T01:55:18.754Z,36.8
2018-01-28T01:56:18.598Z,37
2018-01-28T01:57:18.441Z,37.2
2018-01-28T01:58:19.475Z,37.4
2018-01-28T01:59:18.240Z,37.4
2018-01-28T02:00:18.962Z,37.6
2018-01-28T02:01:18.741Z,37.8
2018-01-28T02:02:18.175Z,37.8
2018-01-28T02:03:18.041Z,37.8
2018-01-28T02:04:18.208Z,37.9
2018-01-28T02:05:17.854Z,37.9
2018-01-28T02:06:17.706Z,37.9
2018-01-28T02:07:17.645Z,38
2018-01-28T02:08:18.059Z,38.1
2018-01-28T02:09:17.649Z,38.1
2018-01-28T02:10:17.389Z,38.1
2018-01-28T02:11:17.551Z,38.2
2018-01-28T02:12:17.709Z,38.1
2018-01-28T02:13:17.725Z,38.1
2018-01-28T02:14:17.572Z,38.1
2018-01-28T02:15:17.178Z,38.2
2018-01-28T02:16:17.247Z,38.3
2018-01-28T02:17:17.870Z,38.3
2018-01-28T02:18:17.052Z,38.2
2018-01-28T02:19:17.398Z,38.2
2018-01-28T02:20:16.752Z,33.3
2018-01-28T02:21:17.047Z,28.9
2018-01-28T02:22:16.922Z,27.9
2018-01-28T02:23:16.967Z,28.5
2018-01-28T02:24:16.373Z,29.6
2018-01-28T02:25:16.525Z,24.8
2018-01-28T02:26:16.306Z,23.3
2018-01-28T02:27:16.671Z,23.3
2018-01-28T02:28:16.473Z,26.4
2018-01-28T02:29:16.269Z,28.5
2018-01-28T02:30:16.273Z,24.3
2018-01-28T02:31:15.816Z,23.2
2018-01-28T02:32:16.054Z,23.4
2018-01-28T02:33:15.532Z,27.3
2018-01-28T02:34:15.932Z,29.5
2018-01-28T02:35:15.498Z,30.5
2018-01-28T02:36:15.399Z,30.8
2018-01-28T02:37:15.801Z,30.6
2018-01-28T02:38:15.977Z,30.3
2018-01-28T02:39:15.423Z,30.1
2018-01-28T02:40:15.492Z,30.3
2018-01-28T02:41:15.846Z,30.4
2018-01-28T02:42:15.779Z,30.7
2018-01-28T02:43:14.975Z,31
2018-01-28T02:44:14.952Z,31.3
2018-01-28T02:45:15.380Z,31.6
2018-01-28T02:46:14.429Z,32.1
2018-01-28T02:47:15.443Z,32.4
2018-01-28T02:48:15.081Z,33.3
2018-01-28T02:49:14.315Z,34.1
2018-01-28T02:50:14.826Z,34.6
2018-01-28T02:51:14.434Z,34.9
2018-01-28T02:52:14.577Z,35.2
2018-01-28T02:53:14.173Z,35.4
2018-01-28T02:54:14.015Z,35.7
2018-01-28T02:55:14.136Z,35.9
2018-01-28T02:56:14.009Z,36.3
2018-01-28T02:57:13.798Z,36.4
2018-01-28T02:58:13.860Z,36.5
2018-01-28T02:59:13.710Z,36.7
2018-01-28T03:00:13.785Z,36.8
2018-01-28T03:01:13.656Z,36.9
2018-01-28T03:02:13.434Z,36.9
2018-01-28T03:03:13.578Z,36.9
2018-01-28T03:04:13.734Z,37
2018-01-28T03:05:13.226Z,37.1
2018-01-28T03:06:13.638Z,37.1
2018-01-28T03:07:13.046Z,37.4
2018-01-28T03:08:13.317Z,37.6
2018-01-28T03:09:13.135Z,37.8
2018-01-28T03:10:13.240Z,37.9
2018-01-28T03:11:13.580Z,38
2018-01-28T03:12:12.812Z,38.1
2018-01-28T03:13:12.506Z,38.2
2018-01-28T03:14:12.696Z,38.2
2018-01-28T03:15:12.677Z,38.2
2018-01-28T03:16:12.093Z,38.2
2018-01-28T03:17:12.815Z,38.3
2018-01-28T03:18:11.928Z,38.3
2018-01-28T03:19:12.335Z,38.4
2018-01-28T03:20:12.126Z,38.5
2018-01-28T03:21:12.112Z,38.6
2018-01-28T03:22:11.872Z,38.6
2018-01-28T03:23:11.969Z,38.7
2018-01-28T03:24:12.021Z,38.7
2018-01-28T03:25:11.974Z,38.7
2018-01-28T03:26:11.591Z,38.8
2018-01-28T03:27:11.581Z,38.8
2018-01-28T03:28:11.599Z,38.8
2018-01-28T03:29:11.030Z,38.8
2018-01-28T03:30:11.228Z,38.8
2018-01-28T03:31:12.028Z,37.7
2018-01-28T03:32:11.536Z,31.3
2018-01-28T03:33:11.245Z,28.8
2018-01-28T03:34:11.408Z,28.2
2018-01-28T03:35:11.081Z,28.9
2018-01-28T03:36:10.794Z,27.3
2018-01-28T03:37:10.644Z,23.7
2018-01-28T03:38:10.649Z,23.1
2018-01-28T03:39:10.760Z,24.2
2018-01-28T03:40:10.449Z,27.7
2018-01-28T03:41:10.705Z,26.1
2018-01-28T03:42:10.906Z,23.3
2018-01-28T03:43:10.519Z,22.8
2018-01-28T03:44:10.306Z,24.9
2018-01-28T03:45:10.099Z,28.2
2018-01-28T03:46:10.366Z,29.6
2018-01-28T03:47:10.458Z,30.4
2018-01-28T03:48:10.147Z,30.6
2018-01-28T03:49:09.852Z,30.7
2018-01-28T03:50:09.610Z,30.6
2018-01-28T03:51:09.849Z,30.4
2018-01-28T03:52:09.944Z,30.4
2018-01-28T03:53:09.810Z,30.6
2018-01-28T03:54:09.872Z,30.8
2018-01-28T03:55:09.130Z,31.1
2018-01-28T03:56:09.738Z,31.4
2018-01-28T03:57:08.930Z,31.6
2018-01-28T03:58:09.269Z,31.9
2018-01-28T03:59:09.086Z,32.5
2018-01-28T04:00:08.936Z,33.4
2018-01-28T04:01:09.289Z,34
2018-01-28T04:02:08.579Z,34.4
2018-01-28T04:03:08.713Z,34.8
2018-01-28T04:04:08.580Z,35.1
2018-01-28T04:05:08.637Z,35.3
2018-01-28T04:06:08.397Z,35.6
2018-01-28T04:07:08.268Z,35.9
2018-01-28T04:08:08.256Z,36.1
2018-01-28T04:09:08.286Z,36.3
2018-01-28T04:10:08.209Z,36.4
2018-01-28T04:11:07.874Z,36.6
2018-01-28T04:12:08.182Z,36.7
2018-01-28T04:13:08.098Z,36.8
2018-01-28T04:14:07.709Z,36.9
2018-01-28T04:15:07.887Z,36.9
2018-01-28T04:16:07.872Z,37
2018-01-28T04:17:07.692Z,37.1
2018-01-28T04:18:07.872Z,37.3
2018-01-28T04:19:07.163Z,37.4
2018-01-28T04:20:07.794Z,37.8
2018-01-28T04:21:07.527Z,38.8
2018-01-28T04:22:07.261Z,39.7
2018-01-28T04:23:07.364Z,40.3
2018-01-28T04:24:07.356Z,40.6
2018-01-28T04:25:07.090Z,40.6
2018-01-28T04:26:07.111Z,39.9
2018-01-28T04:27:06.999Z,39.9
2018-01-28T04:28:06.593Z,40.3
2018-01-28T04:29:06.800Z,40.6
2018-01-28T04:30:06.662Z,40.3
2018-01-28T04:31:06.518Z,39.8
2018-01-28T04:32:06.274Z,39.4
2018-01-28T04:33:06.839Z,39.1
2018-01-28T04:34:06.357Z,38.9
2018-01-28T04:35:06.271Z,38.7
2018-01-28T04:36:06.772Z,38.6
2018-01-28T04:37:06.481Z,38.6
2018-01-28T04:38:05.893Z,36.3
2018-01-28T04:39:05.952Z,30.3
2018-01-28T04:40:05.880Z,28.7
2018-01-28T04:41:05.573Z,28.3
2018-01-28T04:42:05.803Z,29.3
2018-01-28T04:43:05.408Z,25.8
2018-01-28T04:44:05.221Z,23.6
2018-01-28T04:45:05.503Z,23.1
2018-01-28T04:46:05.469Z,25.1
2018-01-28T04:47:05.415Z,28.1
2018-01-28T04:48:05.241Z,24.9
2018-01-28T04:49:05.064Z,23.1
2018-01-28T04:50:05.169Z,22.8
2018-01-28T04:51:05.366Z,25.8
2018-01-28T04:52:04.834Z,28.6
2018-01-28T04:53:04.653Z,24.6
2018-01-28T04:54:05.022Z,4.3
2018-01-28T04:55:04.460Z,-5.8
2018-01-28T04:56:05.115Z,-11.7
2018-01-28T04:57:05.262Z,-14.6
2018-01-28T04:58:04.211Z,-8.4
2018-01-28T04:59:04.403Z,0.5
2018-01-28T05:00:04.614Z,15.4
2018-01-28T05:01:04.393Z,24
2018-01-28T05:02:04.292Z,28.9
2018-01-28T05:03:04.396Z,32.7
2018-01-28T05:04:04.275Z,35.7
2018-01-28T05:05:03.520Z,38.4
2018-01-28T05:06:04.528Z,40.4
2018-01-28T05:07:04.080Z,41.6
2018-01-28T05:08:03.475Z,42.6
2018-01-28T05:09:03.852Z,43.5
2018-01-28T05:10:03.771Z,44.3
2018-01-28T05:11:03.409Z,44.8
2018-01-28T05:12:03.463Z,45.3
2018-01-28T05:13:02.925Z,45.5
2018-01-28T05:14:03.721Z,45.3
2018-01-28T05:15:02.877Z,45.1
2018-01-28T05:16:03.148Z,42.2
2018-01-28T05:17:02.686Z,38.7
2018-01-28T05:18:03.170Z,37.1
2018-01-28T05:19:03.147Z,34.7
2018-01-28T05:20:02.599Z,31.7
2018-01-28T05:21:03.305Z,26.1
2018-01-28T05:22:02.483Z,23.3
2018-01-28T05:23:02.852Z,22.7
2018-01-28T05:24:02.590Z,24.9
2018-01-28T05:25:02.022Z,27.8
2018-01-28T05:26:02.068Z,23.9
2018-01-28T05:27:02.156Z,22
2018-01-28T05:28:02.314Z,21.6
2018-01-28T05:29:02.540Z,25.1
2018-01-28T05:30:02.142Z,27.8
2018-01-28T05:31:02.405Z,29
2018-01-28T05:32:01.792Z,29.8
2018-01-28T05:33:02.264Z,30
2018-01-28T05:34:01.873Z,30.1
2018-01-28T05:35:01.763Z,30
2018-01-28T05:36:02.003Z,29.9
2018-01-28T05:37:01.441Z,30
2018-01-28T05:38:01.947Z,30.2
2018-01-28T05:39:01.116Z,30.4
2018-01-28T05:40:01.624Z,30.7
2018-01-28T05:41:00.906Z,30.9
2018-01-28T05:42:01.104Z,31.4
2018-01-28T05:43:00.903Z,31.7
2018-01-28T05:44:01.385Z,32.5
2018-01-28T05:45:00.957Z,33.4
2018-01-28T05:46:00.673Z,34
2018-01-28T05:47:00.963Z,34.4
2018-01-28T05:48:00.891Z,34.8
2018-01-28T05:49:00.521Z,35
2018-01-28T05:50:00.582Z,35.2
2018-01-28T05:51:00.708Z,35.4
2018-01-28T05:52:00.533Z,35.6
2018-01-28T05:53:01.029Z,35.9
2018-01-28T05:54:00.404Z,36.1
2018-01-28T05:55:00.787Z,36.4
2018-01-28T05:56:00.088Z,36.5
2018-01-28T05:56:59.903Z,36.7
2018-01-28T05:57:59.825Z,36.7
2018-01-28T05:59:00.051Z,36.8
2018-01-28T05:59:59.921Z,36.7
2018-01-28T06:01:00.022Z,36.8
2018-01-28T06:01:59.459Z,37
2018-01-28T06:02:59.665Z,37.1
2018-01-28T06:03:59.987Z,37.3
2018-01-28T06:04:59.751Z,37.4
2018-01-28T06:05:59.373Z,37.4
2018-01-28T06:06:59.570Z,37.5
2018-01-28T06:07:59.211Z,37.5
2018-01-28T06:08:59.129Z,37.9
2018-01-28T06:09:59.410Z,38.2
2018-01-28T06:10:59.142Z,38.1
2018-01-28T06:11:59.582Z,38.6
2018-01-28T06:12:59.273Z,38.6
2018-01-28T06:13:59.149Z,38.6
2018-01-28T06:14:58.665Z,38.9
2018-01-28T06:15:58.801Z,38.6
2018-01-28T06:16:58.521Z,38.6
2018-01-28T06:17:58.769Z,39.3
2018-01-28T06:18:58.606Z,39.8
2018-01-28T06:19:58.386Z,39.5
2018-01-28T06:20:58.418Z,39
2018-01-28T06:21:58.568Z,36.3
2018-01-28T06:22:58.513Z,29.6
2018-01-28T06:23:58.204Z,27.6
2018-01-28T06:24:58.212Z,27.6
2018-01-28T06:25:58.470Z,29
2018-01-28T06:26:58.449Z,25.4
2018-01-28T06:27:57.767Z,22.8
2018-01-28T06:28:57.973Z,22.3
2018-01-28T06:29:58.090Z,24.4
2018-01-28T06:30:58.482Z,28
2018-01-28T06:31:57.255Z,24.4
2018-01-28T06:32:57.274Z,22.4
2018-01-28T06:33:57.479Z,21.9
2018-01-28T06:34:57.354Z,25.3
2018-01-28T06:35:57.724Z,28.3
2018-01-28T06:36:57.298Z,29.5
2018-01-28T06:37:57.502Z,30.3
2018-01-28T06:38:57.225Z,30.5
2018-01-28T06:39:57.323Z,30.5
2018-01-28T06:40:57.013Z,30.4
2018-01-28T06:41:57.794Z,30.3
2018-01-28T06:42:56.635Z,30.3
2018-01-28T06:43:57.057Z,30.4
2018-01-28T06:44:56.765Z,30.6
2018-01-28T06:45:56.643Z,30.9
2018-01-28T06:46:56.775Z,31.1
2018-01-28T06:47:56.863Z,31.6
2018-01-28T06:48:56.944Z,31.9
2018-01-28T06:49:56.330Z,32.7
2018-01-28T06:50:56.503Z,33.8
2018-01-28T06:51:56.264Z,34.6
2018-01-28T06:52:56.132Z,35.2
2018-01-28T06:53:56.482Z,35.8
2018-01-28T06:54:56.480Z,36.2
2018-01-28T06:55:56.224Z,36.6
2018-01-28T06:56:55.749Z,37.1
2018-01-28T06:57:55.790Z,33.9
2018-01-28T06:58:55.708Z,30.3
2018-01-28T06:59:56.447Z,28.9
2018-01-28T07:00:55.648Z,29.2
2018-01-28T07:01:55.596Z,30
2018-01-28T07:02:55.459Z,25.3
2018-01-28T07:03:55.289Z,23.2
2018-01-28T07:04:55.418Z,22.9
2018-01-28T07:05:55.723Z,25.9
2018-01-28T07:06:55.153Z,27.6
2018-01-28T07:07:55.485Z,23.3
2018-01-28T07:08:55.202Z,21.9
2018-01-28T07:09:54.720Z,21.8
2018-01-28T07:10:55.274Z,25.3
2018-01-28T07:11:55.464Z,26.3
2018-01-28T07:12:54.807Z,22.3
2018-01-28T07:13:55.040Z,21
2018-01-28T07:14:54.888Z,21.3
2018-01-28T07:15:54.857Z,24.7
2018-01-28T07:16:54.459Z,25.2
2018-01-28T07:17:54.624Z,21.3
2018-01-28T07:18:54.198Z,20.1
2018-01-28T07:19:54.279Z,20.8
2018-01-28T07:20:54.256Z,24.3
2018-01-28T07:21:55.006Z,23.9
2018-01-28T07:22:54.234Z,20.6
2018-01-28T07:23:54.413Z,19.5
2018-01-28T07:24:54.119Z,20.8
2018-01-28T07:25:54.021Z,24
2018-01-28T07:26:53.763Z,23.3
2018-01-28T07:27:53.800Z,20.3
2018-01-28T07:28:53.947Z,19.3
2018-01-28T07:29:53.622Z,21.1
2018-01-28T07:30:53.531Z,24
2018-01-28T07:31:53.720Z,22.6
2018-01-28T07:32:53.876Z,20.9
2018-01-28T07:33:53.360Z,20.6
2018-01-28T07:34:53.446Z,22.4
2018-01-28T07:35:53.186Z,24.4
2018-01-28T07:36:53.405Z,22
2018-01-28T07:37:53.267Z,19.7
2018-01-28T07:38:53.149Z,19.1
2018-01-28T07:39:53.000Z,21.9
2018-01-28T07:40:53.219Z,24.1
2018-01-28T07:41:53.115Z,23.3
2018-01-28T07:42:52.896Z,20
2018-01-28T07:43:52.896Z,19.3
2018-01-28T07:44:52.944Z,20.8
2018-01-28T07:45:52.636Z,23.9
2018-01-28T07:46:52.837Z,26.1
2018-01-28T07:47:52.431Z,22.6
2018-01-28T07:48:52.124Z,21.2
2018-01-28T07:49:52.516Z,20.9
2018-01-28T07:50:52.259Z,23.1
2018-01-28T07:51:52.340Z,25.8
2018-01-28T07:52:52.222Z,25.1
2018-01-28T07:53:51.790Z,21.8
2018-01-28T07:54:52.063Z,20.6
2018-01-28T07:55:51.717Z,21.6
2018-01-28T07:56:52.278Z,24.1
2018-01-28T07:57:51.512Z,27
2018-01-28T07:58:51.634Z,24.1
2018-01-28T07:59:51.385Z,20.8
2018-01-28T08:00:51.506Z,19.9
2018-01-28T08:01:52.226Z,22.4
2018-01-28T08:02:51.337Z,25.6
2018-01-28T08:03:51.298Z,26.6
2018-01-28T08:04:51.345Z,22.4
2018-01-28T08:05:50.948Z,20.6
2018-01-28T08:06:50.832Z,21.3
2018-01-28T08:07:51.240Z,24.1
2018-01-28T08:08:50.912Z,27.1
2018-01-28T08:09:50.721Z,24.1
2018-01-28T08:10:50.900Z,20.9
2018-01-28T08:11:50.797Z,20.2
2018-01-28T08:12:51.041Z,22.8
2018-01-28T08:13:51.168Z,25.9
2018-01-28T08:14:50.403Z,25.8
2018-01-28T08:15:50.386Z,21.7
2018-01-28T08:16:50.494Z,20.4
2018-01-28T08:17:50.429Z,21.9
2018-01-28T08:18:50.137Z,25.1
2018-01-28T08:19:50.219Z,24.5
2018-01-28T08:20:49.915Z,20.3
2018-01-28T08:21:50.194Z,19.2
2018-01-28T08:22:50.323Z,19.2
2018-01-28T08:23:50.263Z,19.4
2018-01-28T08:24:49.868Z,19.8
2018-01-28T08:25:49.955Z,21.3
2018-01-28T08:26:50.079Z,24.2
2018-01-28T08:27:49.529Z,27.6
2018-01-28T08:28:50.090Z,27.1
2018-01-28T08:29:49.344Z,22.3
2018-01-28T08:30:49.492Z,20.5
2018-01-28T08:31:49.165Z,22.6
2018-01-28T08:32:49.378Z,26.3
2018-01-28T08:33:48.954Z,25.1
2018-01-28T08:34:49.540Z,20.8
2018-01-28T08:35:49.012Z,19.9
2018-01-28T08:36:48.921Z,22.8
2018-01-28T08:37:48.939Z,25.8
2018-01-28T08:38:49.272Z,24
2018-01-28T08:39:48.703Z,21.2
2018-01-28T08:40:48.625Z,20.7
2018-01-28T08:41:48.612Z,23.3
2018-01-28T08:42:48.412Z,26.1
2018-01-28T08:43:48.664Z,23.2
2018-01-28T08:44:48.465Z,20.8
2018-01-28T08:45:49.154Z,20.4
2018-01-28T08:46:48.379Z,21.9
2018-01-28T08:47:48.249Z,24.9
2018-01-28T08:48:48.211Z,24.2
2018-01-28T08:49:48.390Z,20.7
2018-01-28T08:50:47.902Z,20.1
2018-01-28T08:51:47.900Z,22.6
2018-01-28T08:52:47.831Z,25.5
2018-01-28T08:53:47.836Z,23.1
2018-01-28T08:54:47.824Z,20.9
2018-01-28T08:55:47.897Z,20.5
2018-01-28T08:56:47.984Z,21.8
2018-01-28T08:57:47.404Z,24.5
2018-01-28T08:58:47.074Z,24.6
2018-01-28T09:00:19.491Z,21.8
2018-01-28T09:00:47.138Z,21.3
2018-01-28T09:01:47.280Z,22.8
2018-01-28T09:02:47.505Z,25.3
2018-01-28T09:03:47.701Z,24.1
2018-01-28T09:04:46.664Z,21.5
2018-01-28T09:05:47.123Z,21
2018-01-28T09:06:47.065Z,21.7
2018-01-28T09:07:47.630Z,24.5
2018-01-28T09:08:46.814Z,25
2018-01-28T09:09:46.333Z,21.4
2018-01-28T09:10:46.951Z,20.6
2018-01-28T09:11:46.514Z,21.7
2018-01-28T09:12:46.340Z,24.6
2018-01-28T09:13:46.468Z,24.3
2018-01-28T09:14:46.123Z,20.9
2018-01-28T09:15:46.521Z,20.3
2018-01-28T09:16:46.528Z,22.1
2018-01-28T09:17:46.385Z,24.8
2018-01-28T09:18:46.093Z,23.2
2018-01-28T09:19:45.554Z,18.9
2018-01-28T09:20:45.838Z,18.4
2018-01-28T09:21:45.714Z,21.6
2018-01-28T09:22:45.664Z,24.6
2018-01-28T09:23:45.806Z,22.7
2018-01-28T09:24:45.574Z,20.6
2018-01-28T09:25:45.256Z,20.3
2018-01-28T09:26:45.990Z,23.1
2018-01-28T09:27:45.475Z,25.8
2018-01-28T09:28:45.380Z,23.4
2018-01-28T09:29:45.066Z,21.2
2018-01-28T09:30:45.000Z,20.9
2018-01-28T09:31:44.709Z,24
2018-01-28T09:32:44.584Z,26.2
2018-01-28T09:33:45.009Z,22.6
2018-01-28T09:34:44.836Z,21.1
2018-01-28T09:35:45.089Z,20.9
2018-01-28T09:36:44.524Z,23.1
2018-01-28T09:37:44.416Z,25.5
2018-01-28T09:38:44.659Z,23.4
2018-01-28T09:39:44.638Z,21.1
2018-01-28T09:40:44.194Z,20.7
2018-01-28T09:41:44.214Z,23.3
2018-01-28T09:42:44.051Z,25.8
2018-01-28T09:43:43.787Z,23.5
2018-01-28T09:44:44.398Z,21.1
2018-01-28T09:45:44.116Z,20.7
2018-01-28T09:46:43.895Z,22.2
2018-01-28T09:47:43.630Z,25.4
2018-01-28T09:48:43.367Z,24.7
2018-01-28T09:49:43.527Z,21.6
2018-01-28T09:50:43.856Z,20.9
2018-01-28T09:51:43.650Z,23.2
2018-01-28T09:52:43.153Z,25.8
2018-01-28T09:53:43.306Z,24.3
2018-01-28T09:54:43.582Z,21.5
2018-01-28T09:55:43.213Z,21.1
2018-01-28T09:56:43.045Z,22.2
2018-01-28T09:57:43.029Z,24.9
2018-01-28T09:58:42.689Z,25.3
2018-01-28T09:59:42.627Z,21.8
2018-01-28T10:00:42.409Z,21.1
2018-01-28T10:01:42.930Z,22.7
2018-01-28T10:02:42.774Z,25.6
2018-01-28T10:03:42.605Z,24.9
2018-01-28T10:04:42.067Z,21.6
2018-01-28T10:05:42.803Z,21
2018-01-28T10:06:42.364Z,21.6
2018-01-28T10:07:42.813Z,24.4
2018-01-28T10:08:41.885Z,25.8
2018-01-28T10:09:41.660Z,22.1
2018-01-28T10:10:41.576Z,21.1
2018-01-28T10:11:41.735Z,22.2
2018-01-28T10:12:41.472Z,25.3
2018-01-28T10:13:41.820Z,26.1
2018-01-28T10:14:41.777Z,22.6
2018-01-28T10:15:41.605Z,21.6
2018-01-28T10:16:41.633Z,22.9
2018-01-28T10:17:41.111Z,25.7
2018-01-28T10:18:41.450Z,25
2018-01-28T10:19:41.758Z,21.4
2018-01-28T10:20:41.669Z,20.9
2018-01-28T10:21:41.097Z,23.2
2018-01-28T10:22:41.006Z,25.9
2018-01-28T10:23:41.338Z,24.1
2018-01-28T10:24:40.905Z,21.4
2018-01-28T10:25:40.826Z,21.1
2018-01-28T10:26:41.340Z,23.9
2018-01-28T10:27:40.460Z,26.8
2018-01-28T10:28:40.707Z,24.1
2018-01-28T10:29:40.207Z,22.1
2018-01-28T10:30:40.089Z,21.8
2018-01-28T10:31:40.120Z,24.6
2018-01-28T10:32:40.378Z,26.2
2018-01-28T10:33:40.136Z,22.4
2018-01-28T10:34:39.939Z,19.5
2018-01-28T10:35:39.722Z,19.4
2018-01-28T10:36:39.778Z,23.8
2018-01-28T10:37:39.717Z,25.3
2018-01-28T10:38:39.518Z,20.8
2018-01-28T10:39:40.224Z,19.1
2018-01-28T10:40:39.694Z,19.9
2018-01-28T10:41:39.289Z,24.1
2018-01-28T10:42:39.551Z,25
2018-01-28T10:43:39.390Z,20.3
2018-01-28T10:44:38.985Z,18.8
2018-01-28T10:45:38.843Z,20.5
2018-01-28T10:46:38.727Z,24.5
2018-01-28T10:47:38.767Z,24.6
2018-01-28T10:48:38.902Z,20.8
2018-01-28T10:49:38.855Z,19.9
2018-01-28T10:50:38.899Z,21.7
2018-01-28T10:51:39.196Z,24.8
2018-01-28T10:52:38.153Z,23.7
2018-01-28T10:53:38.774Z,20.5
2018-01-28T10:54:38.236Z,19.9
2018-01-28T10:55:38.134Z,22.4
2018-01-28T10:56:38.193Z,25.1
2018-01-28T10:57:38.260Z,23.2
2018-01-28T10:58:37.755Z,20.1
2018-01-28T10:59:37.848Z,19.6
2018-01-28T11:00:37.761Z,22.8
2018-01-28T11:01:38.069Z,25.4
2018-01-28T11:02:37.687Z,22.5
2018-01-28T11:03:37.462Z,19.3
2018-01-28T11:04:37.451Z,19.1
2018-01-28T11:05:38.024Z,23.3
2018-01-28T11:06:37.726Z,25.6
2018-01-28T11:07:37.162Z,21.8
2018-01-28T11:08:37.086Z,19.8
2018-01-28T11:09:36.939Z,20
2018-01-28T11:10:37.174Z,24
2018-01-28T11:11:37.399Z,25.6
2018-01-28T11:12:36.907Z,21.6
2018-01-28T11:13:37.059Z,20.3
2018-01-28T11:14:36.748Z,20.9
2018-01-28T11:15:37.408Z,24.8
2018-01-28T11:16:36.469Z,25.8
2018-01-28T11:17:36.694Z,21
2018-01-28T11:18:36.419Z,19.6
2018-01-28T11:19:36.186Z,21.3
2018-01-28T11:20:36.313Z,25.1
2018-01-28T11:21:37.361Z,25.2
2018-01-28T11:22:36.023Z,21.6
2018-01-28T11:23:36.139Z,20.8
2018-01-28T11:24:36.045Z,22.7
2018-01-28T11:25:35.767Z,25.6
2018-01-28T11:26:36.278Z,24.5
2018-01-28T11:27:35.989Z,21.3
2018-01-28T11:28:36.027Z,20.7
2018-01-28T11:29:35.440Z,23
2018-01-28T11:30:35.833Z,25.8
2018-01-28T11:31:35.712Z,23.7
2018-01-28T11:32:36.010Z,21
2018-01-28T11:33:35.287Z,20.5
2018-01-28T11:34:35.270Z,23.6
2018-01-28T11:35:35.110Z,26.1
2018-01-28T11:36:35.186Z,23.1
2018-01-28T11:37:35.117Z,20.8
2018-01-28T11:38:34.769Z,20.6
2018-01-28T11:39:35.328Z,24.1
2018-01-28T11:40:34.941Z,26.1
2018-01-28T11:41:34.773Z,22.8
2018-01-28T11:42:34.464Z,21.2
2018-01-28T11:43:34.489Z,21.2
2018-01-28T11:44:34.996Z,24.8
2018-01-28T11:45:34.438Z,26.2
2018-01-28T11:46:34.332Z,22.4
2018-01-28T11:47:34.158Z,21.1
2018-01-28T11:48:35.217Z,21.6
2018-01-28T11:49:33.968Z,25.1
2018-01-28T11:50:34.126Z,25.9
2018-01-28T11:51:34.091Z,22.2
2018-01-28T11:52:33.787Z,21
2018-01-28T11:53:33.796Z,21.2
2018-01-28T11:54:34.175Z,24.8
2018-01-28T11:55:34.192Z,25.9
2018-01-28T11:56:33.946Z,22.3
2018-01-28T11:57:33.655Z,21
2018-01-28T11:58:33.915Z,21.8
2018-01-28T11:59:33.720Z,25
2018-01-28T12:00:33.385Z,25.3
2018-01-28T12:01:33.965Z,21.6
2018-01-28T12:02:33.459Z,20.7
2018-01-28T12:03:33.315Z,22.1
2018-01-28T12:04:33.823Z,25.2
2018-01-28T12:05:33.798Z,24.6
2018-01-28T12:06:33.021Z,21.3
2018-01-28T12:07:32.636Z,20.4
2018-01-28T12:08:32.654Z,22.4
2018-01-28T12:09:32.771Z,25.3
2018-01-28T12:10:33.179Z,23.7
2018-01-28T12:11:32.691Z,20.8
2018-01-28T12:12:32.576Z,20.3
2018-01-28T12:13:32.911Z,22.8
2018-01-28T12:14:32.601Z,25.4
2018-01-28T12:15:32.752Z,22.9
2018-01-28T12:16:32.629Z,19.6
2018-01-28T12:17:32.226Z,19
2018-01-28T12:18:32.730Z,22.9
2018-01-28T12:19:32.276Z,25.3
2018-01-28T12:20:31.852Z,22.1
2018-01-28T12:21:31.951Z,20.3
2018-01-28T12:22:32.352Z,20.1
2018-01-28T12:23:31.466Z,24.1
2018-01-28T12:24:31.891Z,27.2
2018-01-28T12:25:32.093Z,23.6
2018-01-28T12:26:32.190Z,22.2
2018-01-28T12:27:31.806Z,22.4
2018-01-28T12:28:31.590Z,25.9
2018-01-28T12:29:31.714Z,28.5
2018-01-28T12:30:31.572Z,24.6
2018-01-28T12:31:31.382Z,23.3
2018-01-28T12:32:31.562Z,23.8
2018-01-28T12:33:32.107Z,27.3
2018-01-28T12:34:30.944Z,29
2018-01-28T12:35:30.822Z,25.3
2018-01-28T12:36:31.027Z,24.2
2018-01-28T12:37:30.634Z,25.3
2018-01-28T12:38:30.987Z,27.4
2018-01-28T12:39:30.907Z,28.4
2018-01-28T12:40:30.759Z,24.6
2018-01-28T12:41:30.664Z,23.6
2018-01-28T12:42:30.891Z,25.6
2018-01-28T12:43:30.389Z,28.1
2018-01-28T12:44:30.597Z,27.5
2018-01-28T12:45:30.212Z,24.5
2018-01-28T12:46:30.364Z,23.6
2018-01-28T12:47:30.478Z,25.1
2018-01-28T12:48:30.158Z,27.1
2018-01-28T12:49:29.757Z,24.6
2018-01-28T12:50:30.000Z,22.2
2018-01-28T12:51:29.725Z,21.8
2018-01-28T12:52:29.764Z,24.2
2018-01-28T12:53:30.054Z,26.1
2018-01-28T12:54:30.114Z,23
2018-01-28T12:55:29.790Z,21.2
2018-01-28T12:56:29.555Z,20.9
2018-01-28T12:57:29.313Z,24.1
2018-01-28T12:58:29.212Z,27.6
2018-01-28T12:59:29.171Z,24.6
2018-01-28T13:00:29.377Z,22.9
2018-01-28T13:01:29.672Z,22.9
2018-01-28T13:02:29.572Z,25.8
2018-01-28T13:03:29.368Z,29.4
2018-01-28T13:04:29.122Z,32.1
2018-01-28T13:05:29.362Z,34.5
2018-01-28T13:06:28.724Z,36.9
2018-01-28T13:07:28.880Z,38.8
2018-01-28T13:08:28.988Z,40.3
2018-01-28T13:09:28.566Z,41.1
2018-01-28T13:10:28.500Z,41.2
2018-01-28T13:11:28.745Z,41
2018-01-28T13:12:28.357Z,40.6
2018-01-28T13:13:29.003Z,36.6
2018-01-28T13:14:28.304Z,33.6
2018-01-28T13:15:28.642Z,32.4
2018-01-28T13:16:28.202Z,31.7
2018-01-28T13:17:27.800Z,32.3
2018-01-28T13:18:27.643Z,28.1
2018-01-28T13:19:27.781Z,26.3
2018-01-28T13:20:28.762Z,25.9
2018-01-28T13:21:27.734Z,28.3